Palm Springs International Airport Palm Springs US
ICAO: KPSP
IATA: PSP
Category: Medium
Scheduled Services: Yes

Elevation: 477 ft
TransAlt. 18000 ft.

Airport Communications:
APP/DEP:126.7
ATIS:118.25
CLNC DEL:128.35
CTAF:119.7
GND:121.9
RIVERSIDE RDO:115.5
TWR:119.7
UNICOM:122.95

KPSP Zoom In..

If you have problems with the map follow the link
https://www.worldairports.se/pages/airport.php?
ICAO=KPSP

Runways:

(A) RW 13L length 4952 ft width 75 ft
---- / hdg 130

(B) RW 13R length 10001 ft width 150 ft
---- / hdg 130

(C) RW 31L length 10001 ft width 150 ft
---- / hdg 310

(D) RW 31R length 4952 ft width 75 ft
---- / hdg 310

Location; KPSP
Day. 23 / Time. 18.53 Zulu
* Altimeter: 29.87
* Temperature: 33° c. 91.4°f.
* Wind from: VRB° Speed 03 kn.
Dewpoint: 08° c.
Visibility: 10 Statute Miles.
Clouds: Clear (automated report).

KPSP 231853Z VRB03KT 10SM CLR 33/08 A2987 RMK AO2 SLP110 T03280083


Wind From VRB°
Speed 03 kn.

 
 
jpsmedia.com for Web Design worldairports.se 2018   terms of use